Terminal Aerodrome Forecast
Issued by NWS Omaha/Valley, NE

Home | Current Version | Previous Version | Text Only | Print | Product List | Glossary On
Versions: 1 2 3 4 5 6 7 8 9 10 11 12 13 14 15 16 17 18 19 20 21 22 23 24 25 26 27 28 29 30 31
068
FTUS43 KOAX 252323
TAFLNK
TAF
KLNK 252323Z 2600/2624 35014G19KT P6SM VCSH OVC015
     FM260400 34014G23KT P6SM OVC015
     FM262300 34013G21KT P6SM BKN040 BKN060=

USA.gov is the U.S. government's official web portal to all federal, state and local government web resources and services.